sensor_id;sensor_type;location;lat;lon;timestamp;pressure;altitude;pressure_sealevel;temperature;humidity
72558;BME280;60583;50.094;8.748;2024-02-14T00:01:08;100744.03;;;6.24;81.98
72558;BME280;60583;50.094;8.748;2024-02-14T00:03:52;100739.13;;;6.54;79.29
72558;BME280;60583;50.094;8.748;2024-02-14T00:06:36;100731.53;;;6.67;78.46
72558;BME280;60583;50.094;8.748;2024-02-14T00:09:26;100741.16;;;6.84;77.96
72558;BME280;60583;50.094;8.748;2024-02-14T00:12:09;100736.84;;;6.91;77.78
72558;BME280;60583;50.094;8.748;2024-02-14T00:14:54;100722.25;;;6.79;78.53
72558;BME280;60583;50.094;8.748;2024-02-14T00:17:38;100754.06;;;6.95;78.23
72558;BME280;60583;50.094;8.748;2024-02-14T00:20:22;100735.00;;;6.83;79.67
72558;BME280;60583;50.094;8.748;2024-02-14T00:23:05;100730.22;;;6.79;79.58
72558;BME280;60583;50.094;8.748;2024-02-14T00:25:49;100741.16;;;6.84;80.13
72558;BME280;60583;50.094;8.748;2024-02-14T00:28:33;100748.91;;;6.77;80.99
72558;BME280;60583;50.094;8.748;2024-02-14T00:31:17;100710.97;;;6.44;82.16
72558;BME280;60583;50.094;8.748;2024-02-14T00:34:01;100728.72;;;6.68;81.29
72558;BME280;60583;50.094;8.748;2024-02-14T00:36:45;100739.28;;;6.52;83.14
72558;BME280;60583;50.094;8.748;2024-02-14T00:39:30;100738.47;;;6.52;83.43
72558;BME280;60583;50.094;8.748;2024-02-14T00:42:14;100731.84;;;6.56;84.21
72558;BME280;60583;50.094;8.748;2024-02-14T00:44:58;100729.38;;;6.62;84.13
72558;BME280;60583;50.094;8.748;2024-02-14T00:47:42;100722.59;;;6.52;84.93
72558;BME280;60583;50.094;8.748;2024-02-14T00:50:25;100732.53;;;6.66;84.25
72558;BME280;60583;50.094;8.748;2024-02-14T00:53:09;100697.22;;;6.57;84.14
72558;BME280;60583;50.094;8.748;2024-02-14T00:55:53;100704.69;;;6.54;85.37
72558;BME280;60583;50.094;8.748;2024-02-14T00:58:37;100719.78;;;6.61;85.24
72558;BME280;60583;50.094;8.748;2024-02-14T01:01:21;100716.63;;;6.66;85.35
72558;BME280;60583;50.094;8.748;2024-02-14T01:04:05;100709.34;;;6.76;84.71
72558;BME280;60583;50.094;8.748;2024-02-14T01:06:49;100717.94;;;6.78;84.50
72558;BME280;60583;50.094;8.748;2024-02-14T01:09:34;100671.09;;;6.54;83.64
72558;BME280;60583;50.094;8.748;2024-02-14T01:12:19;100713.47;;;6.94;82.77
72558;BME280;60583;50.094;8.748;2024-02-14T01:15:04;100684.31;;;6.62;84.21
72558;BME280;60583;50.094;8.748;2024-02-14T01:17:48;100702.41;;;6.67;84.91
72558;BME280;60583;50.094;8.748;2024-02-14T01:20:32;100696.91;;;6.52;85.95
72558;BME280;60583;50.094;8.748;2024-02-14T01:23:15;100677.56;;;6.52;85.33
72558;BME280;60583;50.094;8.748;2024-02-14T01:25:59;100690.47;;;6.79;84.90
72558;BME280;60583;50.094;8.748;2024-02-14T01:28:43;100691.44;;;6.70;85.42
72558;BME280;60583;50.094;8.748;2024-02-14T01:31:28;100667.94;;;6.59;85.78
72558;BME280;60583;50.094;8.748;2024-02-14T01:34:13;100678.53;;;6.75;85.12
72558;BME280;60583;50.094;8.748;2024-02-14T01:36:57;100680.50;;;6.73;86.04
72558;BME280;60583;50.094;8.748;2024-02-14T01:39:40;100681.34;;;6.57;86.31
72558;BME280;60583;50.094;8.748;2024-02-14T01:42:24;100677.38;;;6.69;85.95
72558;BME280;60583;50.094;8.748;2024-02-14T01:45:08;100687.47;;;6.74;85.88
72558;BME280;60583;50.094;8.748;2024-02-14T01:47:52;100685.16;;;6.71;86.24
72558;BME280;60583;50.094;8.748;2024-02-14T01:50:37;100655.88;;;6.56;86.25
72558;BME280;60583;50.094;8.748;2024-02-14T01:53:22;100665.63;;;6.64;86.27
72558;BME280;60583;50.094;8.748;2024-02-14T01:56:07;100671.25;;;6.77;85.30
72558;BME280;60583;50.094;8.748;2024-02-14T01:58:51;100667.28;;;6.81;84.79
72558;BME280;60583;50.094;8.748;2024-02-14T02:01:35;100652.53;;;6.78;84.84
72558;BME280;60583;50.094;8.748;2024-02-14T02:04:19;100668.91;;;6.98;83.95
72558;BME280;60583;50.094;8.748;2024-02-14T02:07:04;100643.88;;;6.92;83.61
72558;BME280;60583;50.094;8.748;2024-02-14T02:09:48;100661.94;;;6.97;84.72
72558;BME280;60583;50.094;8.748;2024-02-14T02:12:32;100653.00;;;6.98;83.61
72558;BME280;60583;50.094;8.748;2024-02-14T02:15:16;100660.59;;;7.09;82.88
72558;BME280;60583;50.094;8.748;2024-02-14T02:18:02;100661.25;;;7.11;83.99
72558;BME280;60583;50.094;8.748;2024-02-14T02:20:49;100665.91;;;7.09;83.70
72558;BME280;60583;50.094;8.748;2024-02-14T02:23:34;100649.69;;;7.04;84.10
72558;BME280;60583;50.094;8.748;2024-02-14T02:26:17;100642.06;;;7.01;84.25
72558;BME280;60583;50.094;8.748;2024-02-14T02:29:01;100638.91;;;6.97;84.20
72558;BME280;60583;50.094;8.748;2024-02-14T02:31:46;100646.84;;;6.97;83.94
72558;BME280;60583;50.094;8.748;2024-02-14T02:34:30;100644.69;;;7.01;84.93
72558;BME280;60583;50.094;8.748;2024-02-14T02:37:14;100620.22;;;6.91;84.31
72558;BME280;60583;50.094;8.748;2024-02-14T02:40:00;100623.19;;;6.96;84.61
72558;BME280;60583;50.094;8.748;2024-02-14T02:42:44;100638.69;;;7.15;83.96
72558;BME280;60583;50.094;8.748;2024-02-14T02:45:31;100634.41;;;7.06;83.39
72558;BME280;60583;50.094;8.748;2024-02-14T02:48:15;100641.66;;;7.20;83.29
72558;BME280;60583;50.094;8.748;2024-02-14T02:50:59;100650.09;;;7.32;82.23
72558;BME280;60583;50.094;8.748;2024-02-14T02:53:43;100640.84;;;7.20;82.71
72558;BME280;60583;50.094;8.748;2024-02-14T02:56:27;100660.38;;;7.35;82.46
72558;BME280;60583;50.094;8.748;2024-02-14T02:59:11;100618.50;;;7.06;82.53
72558;BME280;60583;50.094;8.748;2024-02-14T03:01:56;100661.97;;;7.44;82.14
72558;BME280;60583;50.094;8.748;2024-02-14T03:04:41;100633.97;;;7.41;81.07
72558;BME280;60583;50.094;8.748;2024-02-14T03:07:26;100655.06;;;7.65;80.09
72558;BME280;60583;50.094;8.748;2024-02-14T03:10:10;100662.41;;;7.55;80.73
72558;BME280;60583;50.094;8.748;2024-02-14T03:12:53;100630.25;;;7.58;79.89
72558;BME280;60583;50.094;8.748;2024-02-14T03:15:38;100658.72;;;7.72;79.95
72558;BME280;60583;50.094;8.748;2024-02-14T03:18:22;100632.38;;;7.63;79.68
72558;BME280;60583;50.094;8.748;2024-02-14T03:21:06;100670.31;;;7.71;79.89
72558;BME280;60583;50.094;8.748;2024-02-14T03:23:50;100650.47;;;7.59;80.96
72558;BME280;60583;50.094;8.748;2024-02-14T03:26:34;100663.31;;;7.79;79.40
72558;BME280;60583;50.094;8.748;2024-02-14T03:29:19;100667.47;;;7.73;79.82
72558;BME280;60583;50.094;8.748;2024-02-14T03:32:03;100671.28;;;7.79;80.10
72558;BME280;60583;50.094;8.748;2024-02-14T03:34:48;100654.09;;;7.66;80.47
72558;BME280;60583;50.094;8.748;2024-02-14T03:37:32;100642.31;;;7.69;79.72
72558;BME280;60583;50.094;8.748;2024-02-14T03:40:16;100655.06;;;7.65;80.21
72558;BME280;60583;50.094;8.748;2024-02-14T03:43:00;100638.91;;;7.52;80.64
72558;BME280;60583;50.094;8.748;2024-02-14T03:45:44;100634.88;;;7.64;80.28
72558;BME280;60583;50.094;8.748;2024-02-14T03:48:28;100664.34;;;7.78;80.39
72558;BME280;60583;50.094;8.748;2024-02-14T03:51:12;100667.00;;;7.78;79.64
72558;BME280;60583;50.094;8.748;2024-02-14T03:53:56;100655.25;;;7.64;79.73
72558;BME280;60583;50.094;8.748;2024-02-14T03:56:40;100656.72;;;7.75;79.87
72558;BME280;60583;50.094;8.748;2024-02-14T03:59:24;100637.56;;;7.56;79.91
72558;BME280;60583;50.094;8.748;2024-02-14T04:02:08;100666.31;;;7.76;80.26
72558;BME280;60583;50.094;8.748;2024-02-14T04:04:53;100646.47;;;7.63;80.77
72558;BME280;60583;50.094;8.748;2024-02-14T04:07:37;100671.47;;;7.77;80.19
72558;BME280;60583;50.094;8.748;2024-02-14T04:10:21;100658.19;;;7.77;79.68
72558;BME280;60583;50.094;8.748;2024-02-14T04:13:06;100663.97;;;7.81;79.42
72558;BME280;60583;50.094;8.748;2024-02-14T04:15:49;100669.13;;;7.82;79.72
72558;BME280;60583;50.094;8.748;2024-02-14T04:18:33;100667.44;;;7.81;80.01
72558;BME280;60583;50.094;8.748;2024-02-14T04:21:17;100671.13;;;7.80;80.31
72558;BME280;60583;50.094;8.748;2024-02-14T04:24:01;100651.22;;;7.76;80.20
72558;BME280;60583;50.094;8.748;2024-02-14T04:26:45;100636.38;;;7.59;80.34
72558;BME280;60583;50.094;8.748;2024-02-14T04:29:29;100664.97;;;7.80;79.90
72558;BME280;60583;50.094;8.748;2024-02-14T04:32:16;100648.41;;;7.78;79.63
72558;BME280;60583;50.094;8.748;2024-02-14T04:35:01;100663.59;;;7.92;79.90
72558;BME280;60583;50.094;8.748;2024-02-14T04:37:45;100657.47;;;7.83;80.32
72558;BME280;60583;50.094;8.748;2024-02-14T04:40:30;100659.94;;;7.93;80.29
72558;BME280;60583;50.094;8.748;2024-02-14T04:43:14;100630.50;;;7.71;80.42
72558;BME280;60583;50.094;8.748;2024-02-14T04:45:57;100666.13;;;7.85;80.19
72558;BME280;60583;50.094;8.748;2024-02-14T04:48:42;100664.63;;;7.83;80.98
72558;BME280;60583;50.094;8.748;2024-02-14T04:51:26;100664.13;;;7.87;79.81
72558;BME280;60583;50.094;8.748;2024-02-14T04:54:09;100663.25;;;7.95;79.50
72558;BME280;60583;50.094;8.748;2024-02-14T04:56:54;100649.31;;;7.93;79.58
72558;BME280;60583;50.094;8.748;2024-02-14T04:59:38;100649.47;;;7.91;79.93
72558;BME280;60583;50.094;8.748;2024-02-14T05:02:22;100651.59;;;7.96;80.22
72558;BME280;60583;50.094;8.748;2024-02-14T05:05:06;100635.75;;;7.88;79.76
72558;BME280;60583;50.094;8.748;2024-02-14T05:07:51;100648.78;;;7.97;79.42
72558;BME280;60583;50.094;8.748;2024-02-14T05:10:35;100657.22;;;8.01;79.24
72558;BME280;60583;50.094;8.748;2024-02-14T05:13:20;100664.78;;;8.12;79.49
72558;BME280;60583;50.094;8.748;2024-02-14T05:16:04;100666.06;;;8.16;78.86
72558;BME280;60583;50.094;8.748;2024-02-14T05:18:48;100649.78;;;8.19;79.47
72558;BME280;60583;50.094;8.748;2024-02-14T05:21:32;100628.44;;;7.90;79.69
72558;BME280;60583;50.094;8.748;2024-02-14T05:24:16;100656.53;;;8.07;79.08
72558;BME280;60583;50.094;8.748;2024-02-14T05:27:00;100649.53;;;8.06;79.68
72558;BME280;60583;50.094;8.748;2024-02-14T05:29:44;100641.41;;;8.07;80.58
72558;BME280;60583;50.094;8.748;2024-02-14T05:32:28;100665.19;;;8.01;80.20
72558;BME280;60583;50.094;8.748;2024-02-14T05:35:12;100650.25;;;8.00;80.68
72558;BME280;60583;50.094;8.748;2024-02-14T05:37:56;100612.31;;;7.91;80.96
72558;BME280;60583;50.094;8.748;2024-02-14T05:40:40;100622.41;;;7.96;80.64
72558;BME280;60583;50.094;8.748;2024-02-14T05:43:24;100665.63;;;8.12;80.77
72558;BME280;60583;50.094;8.748;2024-02-14T05:46:08;100661.66;;;8.08;80.94
72558;BME280;60583;50.094;8.748;2024-02-14T05:48:53;100653.75;;;8.00;80.84
72558;BME280;60583;50.094;8.748;2024-02-14T05:51:37;100672.47;;;8.07;81.08
72558;BME280;60583;50.094;8.748;2024-02-14T05:54:21;100676.09;;;8.06;81.27
72558;BME280;60583;50.094;8.748;2024-02-14T05:57:04;100636.34;;;7.98;80.43
72558;BME280;60583;50.094;8.748;2024-02-14T05:59:48;100672.56;;;8.13;80.75
72558;BME280;60583;50.094;8.748;2024-02-14T06:02:32;100664.78;;;8.12;81.69
72558;BME280;60583;50.094;8.748;2024-02-14T06:05:16;100647.88;;;8.13;81.30
72558;BME280;60583;50.094;8.748;2024-02-14T06:08:00;100675.34;;;8.28;81.54
72558;BME280;60583;50.094;8.748;2024-02-14T06:10:46;100665.28;;;8.15;81.23
72558;BME280;60583;50.094;8.748;2024-02-14T06:13:31;100666.22;;;8.22;82.00
72558;BME280;60583;50.094;8.748;2024-02-14T06:16:15;100666.22;;;8.22;81.40
72558;BME280;60583;50.094;8.748;2024-02-14T06:19:00;100661.59;;;8.16;81.37
72558;BME280;60583;50.094;8.748;2024-02-14T06:21:44;100677.19;;;8.19;81.81
72558;BME280;60583;50.094;8.748;2024-02-14T06:24:28;100694.09;;;8.26;82.17
72558;BME280;60583;50.094;8.748;2024-02-14T06:27:12;100686.97;;;8.19;81.95
72558;BME280;60583;50.094;8.748;2024-02-14T06:29:57;100696.28;;;8.23;82.19
72558;BME280;60583;50.094;8.748;2024-02-14T06:32:41;100698.09;;;8.22;82.76
72558;BME280;60583;50.094;8.748;2024-02-14T06:35:25;100708.22;;;8.19;82.96
72558;BME280;60583;50.094;8.748;2024-02-14T06:38:09;100723.09;;;8.36;82.90
72558;BME280;60583;50.094;8.748;2024-02-14T06:40:53;100715.84;;;8.30;83.24
72558;BME280;60583;50.094;8.748;2024-02-14T06:43:37;100717.13;;;8.34;83.72
72558;BME280;60583;50.094;8.748;2024-02-14T06:46:23;100718.50;;;8.30;84.40
72558;BME280;60583;50.094;8.748;2024-02-14T06:49:07;100693.97;;;8.20;84.24
72558;BME280;60583;50.094;8.748;2024-02-14T06:51:51;100725.63;;;8.29;84.43
72558;BME280;60583;50.094;8.748;2024-02-14T06:54:35;100736.47;;;8.20;85.67
72558;BME280;60583;50.094;8.748;2024-02-14T06:57:19;100730.66;;;8.16;86.29
72558;BME280;60583;50.094;8.748;2024-02-14T07:00:03;100744.47;;;8.12;86.03
72558;BME280;60583;50.094;8.748;2024-02-14T07:02:50;100729.81;;;8.16;86.42
72558;BME280;60583;50.094;8.748;2024-02-14T07:05:33;100736.50;;;8.12;86.69
72558;BME280;60583;50.094;8.748;2024-02-14T07:08:17;100727.69;;;8.11;86.87
72558;BME280;60583;50.094;8.748;2024-02-14T07:11:01;100745.34;;;8.04;86.39
72558;BME280;60583;50.094;8.748;2024-02-14T07:13:45;100742.16;;;8.09;87.04
72558;BME280;60583;50.094;8.748;2024-02-14T07:16:29;100734.50;;;8.14;86.94
72558;BME280;60583;50.094;8.748;2024-02-14T07:19:13;100727.25;;;8.08;86.36
72558;BME280;60583;50.094;8.748;2024-02-14T07:21:57;100748.38;;;8.24;85.95
72558;BME280;60583;50.094;8.748;2024-02-14T07:24:41;100743.97;;;8.08;86.91
72558;BME280;60583;50.094;8.748;2024-02-14T07:27:26;100732.47;;;8.16;86.71
72558;BME280;60583;50.094;8.748;2024-02-14T07:30:11;100757.19;;;8.24;87.31
72558;BME280;60583;50.094;8.748;2024-02-14T07:32:55;100688.31;;;7.92;87.61
72558;BME280;60583;50.094;8.748;2024-02-14T07:35:39;100725.13;;;8.26;86.62
72558;BME280;60583;50.094;8.748;2024-02-14T07:38:23;100748.63;;;8.45;86.91
72558;BME280;60583;50.094;8.748;2024-02-14T07:41:07;100749.91;;;8.49;87.09
72558;BME280;60583;50.094;8.748;2024-02-14T07:43:51;100739.63;;;8.46;87.32
72558;BME280;60583;50.094;8.748;2024-02-14T07:46:36;100750.56;;;8.51;86.48
72558;BME280;60583;50.094;8.748;2024-02-14T07:49:20;100759.56;;;8.50;87.01
72558;BME280;60583;50.094;8.748;2024-02-14T07:52:04;100768.88;;;8.46;87.43
72558;BME280;60583;50.094;8.748;2024-02-14T07:54:52;100759.31;;;8.37;87.15
72558;BME280;60583;50.094;8.748;2024-02-14T07:57:38;100763.81;;;8.28;88.08
72558;BME280;60583;50.094;8.748;2024-02-14T08:00:22;100725.84;;;8.20;87.26
72558;BME280;60583;50.094;8.748;2024-02-14T08:03:09;100719.69;;;8.27;86.44
72558;BME280;60583;50.094;8.748;2024-02-14T08:05:53;100728.94;;;8.31;87.09
72558;BME280;60583;50.094;8.748;2024-02-14T08:08:36;100758.97;;;8.40;87.14
72558;BME280;60583;50.094;8.748;2024-02-14T08:11:21;100753.94;;;8.45;86.45
72558;BME280;60583;50.094;8.748;2024-02-14T08:14:05;100755.78;;;8.45;87.47
72558;BME280;60583;50.094;8.748;2024-02-14T08:16:49;100752.56;;;8.49;87.37
72558;BME280;60583;50.094;8.748;2024-02-14T08:19:33;100741.00;;;8.42;87.69
72558;BME280;60583;50.094;8.748;2024-02-14T08:22:17;100766.34;;;8.53;87.63
72558;BME280;60583;50.094;8.748;2024-02-14T08:25:00;100764.28;;;8.63;87.90
72558;BME280;60583;50.094;8.748;2024-02-14T08:27:45;100731.66;;;8.46;87.72
72558;BME280;60583;50.094;8.748;2024-02-14T08:30:29;100763.66;;;8.83;87.15
72558;BME280;60583;50.094;8.748;2024-02-14T08:33:13;100746.44;;;8.71;87.11
72558;BME280;60583;50.094;8.748;2024-02-14T08:35:57;100729.16;;;8.75;86.74
72558;BME280;60583;50.094;8.748;2024-02-14T08:38:41;100737.13;;;8.75;86.64
72558;BME280;60583;50.094;8.748;2024-02-14T08:41:25;100744.25;;;8.75;87.46
72558;BME280;60583;50.094;8.748;2024-02-14T08:44:09;100740.78;;;8.74;87.48
72558;BME280;60583;50.094;8.748;2024-02-14T08:46:53;100733.81;;;8.73;87.29
72558;BME280;60583;50.094;8.748;2024-02-14T08:49:40;100732.75;;;8.82;87.92
72558;BME280;60583;50.094;8.748;2024-02-14T08:52:23;100736.03;;;8.84;87.09
72558;BME280;60583;50.094;8.748;2024-02-14T08:55:08;100740.00;;;8.88;86.97
72558;BME280;60583;50.094;8.748;2024-02-14T08:57:57;100737.22;;;8.82;87.50
72558;BME280;60583;50.094;8.748;2024-02-14T09:00:41;100714.66;;;8.78;86.36
72558;BME280;60583;50.094;8.748;2024-02-14T09:03:25;100751.53;;;9.04;86.70
72558;BME280;60583;50.094;8.748;2024-02-14T09:06:09;100764.72;;;9.12;87.01
72558;BME280;60583;50.094;8.748;2024-02-14T09:08:53;100745.06;;;8.98;87.50
72558;BME280;60583;50.094;8.748;2024-02-14T09:11:38;100765.47;;;9.06;87.35
72558;BME280;60583;50.094;8.748;2024-02-14T09:14:22;100755.53;;;8.99;87.18
72558;BME280;60583;50.094;8.748;2024-02-14T09:17:06;100764.63;;;9.05;87.72
72558;BME280;60583;50.094;8.748;2024-02-14T09:19:51;100746.81;;;8.91;87.65
72558;BME280;60583;50.094;8.748;2024-02-14T09:22:36;100790.97;;;9.15;88.77
72558;BME280;60583;50.094;8.748;2024-02-14T09:25:20;100791.81;;;9.15;88.34
72558;BME280;60583;50.094;8.748;2024-02-14T09:28:07;100779.50;;;9.14;88.43
72558;BME280;60583;50.094;8.748;2024-02-14T09:30:51;100797.50;;;9.27;88.47
72558;BME280;60583;50.094;8.748;2024-02-14T09:33:35;100778.25;;;9.25;88.36
72558;BME280;60583;50.094;8.748;2024-02-14T09:36:20;100793.44;;;9.39;88.10
72558;BME280;60583;50.094;8.748;2024-02-14T09:39:04;100786.22;;;9.25;88.44
72558;BME280;60583;50.094;8.748;2024-02-14T09:41:52;100796.03;;;9.24;89.17
72558;BME280;60583;50.094;8.748;2024-02-14T09:44:39;100772.00;;;9.18;89.29
72558;BME280;60583;50.094;8.748;2024-02-14T09:47:24;100758.13;;;9.08;88.78
72558;BME280;60583;50.094;8.748;2024-02-14T09:50:09;100795.91;;;9.40;88.68
72558;BME280;60583;50.094;8.748;2024-02-14T09:52:53;100789.19;;;9.30;88.92
72558;BME280;60583;50.094;8.748;2024-02-14T09:55:38;100771.66;;;9.35;87.94
72558;BME280;60583;50.094;8.748;2024-02-14T09:58:23;100783.81;;;9.52;87.82
72558;BME280;60583;50.094;8.748;2024-02-14T10:01:08;100769.06;;;9.27;88.66
72558;BME280;60583;50.094;8.748;2024-02-14T10:03:53;100786.31;;;9.69;87.65
72558;BME280;60583;50.094;8.748;2024-02-14T10:06:37;100800.47;;;9.69;87.03
72558;BME280;60583;50.094;8.748;2024-02-14T10:09:22;100779.78;;;9.71;87.29
72558;BME280;60583;50.094;8.748;2024-02-14T10:12:06;100784.47;;;9.69;87.37
72558;BME280;60583;50.094;8.748;2024-02-14T10:14:52;100808.09;;;9.87;87.02
72558;BME280;60583;50.094;8.748;2024-02-14T10:17:39;100801.09;;;9.71;87.31
72558;BME280;60583;50.094;8.748;2024-02-14T10:20:24;100791.28;;;9.86;86.35
72558;BME280;60583;50.094;8.748;2024-02-14T10:23:08;100787.59;;;10.02;85.78
72558;BME280;60583;50.094;8.748;2024-02-14T10:25:54;100808.25;;;10.00;85.90
72558;BME280;60583;50.094;8.748;2024-02-14T10:28:43;100807.97;;;9.95;85.87
72558;BME280;60583;50.094;8.748;2024-02-14T10:31:27;100772.88;;;9.62;86.78
72558;BME280;60583;50.094;8.748;2024-02-14T10:34:12;100821.22;;;9.88;86.46
72558;BME280;60583;50.094;8.748;2024-02-14T10:36:57;100817.53;;;9.89;86.86
72558;BME280;60583;50.094;8.748;2024-02-14T10:39:46;100814.31;;;9.94;86.63
72558;BME280;60583;50.094;8.748;2024-02-14T10:42:31;100820.56;;;9.86;87.63
72558;BME280;60583;50.094;8.748;2024-02-14T10:45:15;100827.94;;;9.84;87.40
72558;BME280;60583;50.094;8.748;2024-02-14T10:48:00;100822.19;;;9.87;87.22
72558;BME280;60583;50.094;8.748;2024-02-14T10:50:47;100831.13;;;9.94;87.71
72558;BME280;60583;50.094;8.748;2024-02-14T10:53:33;100849.41;;;9.97;87.68
72558;BME280;60583;50.094;8.748;2024-02-14T10:56:18;100820.94;;;9.83;88.37
72558;BME280;60583;50.094;8.748;2024-02-14T10:59:06;100815.53;;;10.20;86.94
72558;BME280;60583;50.094;8.748;2024-02-14T11:01:52;100818.09;;;10.29;86.70
72558;BME280;60583;50.094;8.748;2024-02-14T11:04:36;100789.63;;;10.14;86.84
72558;BME280;60583;50.094;8.748;2024-02-14T11:07:20;100805.47;;;10.73;85.08
72558;BME280;60583;50.094;8.748;2024-02-14T11:10:08;100808.13;;;11.36;82.96
72558;BME280;60583;50.094;8.748;2024-02-14T11:12:54;100797.59;;;11.28;82.93
72558;BME280;60583;50.094;8.748;2024-02-14T11:15:38;100814.31;;;11.37;83.35
72558;BME280;60583;50.094;8.748;2024-02-14T11:18:28;100810.31;;;11.26;83.04
72558;BME280;60583;50.094;8.748;2024-02-14T11:21:28;100811.22;;;12.36;78.67
72558;BME280;60583;50.094;8.748;2024-02-14T11:24:14;100788.53;;;11.78;80.22
72558;BME280;60583;50.094;8.748;2024-02-14T11:27:01;100800.97;;;11.37;82.75
72558;BME280;60583;50.094;8.748;2024-02-14T11:29:52;100812.22;;;11.60;81.98
72558;BME280;60583;50.094;8.748;2024-02-14T11:32:36;100785.09;;;11.35;83.17
72558;BME280;60583;50.094;8.748;2024-02-14T11:35:23;100790.53;;;12.04;81.07
72558;BME280;60583;50.094;8.748;2024-02-14T11:38:09;100790.53;;;11.70;81.82
72558;BME280;60583;50.094;8.748;2024-02-14T11:40:54;100800.03;;;12.67;78.48
72558;BME280;60583;50.094;8.748;2024-02-14T11:43:50;100789.16;;;12.81;77.32
72558;BME280;60583;50.094;8.748;2024-02-14T11:46:35;100797.19;;;12.21;79.08
72558;BME280;60583;50.094;8.748;2024-02-14T11:49:19;100785.53;;;12.35;79.95
72558;BME280;60583;50.094;8.748;2024-02-14T11:52:04;100781.19;;;12.28;79.68
72558;BME280;60583;50.094;8.748;2024-02-14T11:54:48;100764.22;;;11.45;82.14
72558;BME280;60583;50.094;8.748;2024-02-14T11:57:35;100796.19;;;11.32;83.62
72558;BME280;60583;50.094;8.748;2024-02-14T12:00:20;100800.75;;;11.38;84.01
72558;BME280;60583;50.094;8.748;2024-02-14T12:03:06;100798.69;;;11.40;84.32
72558;BME280;60583;50.094;8.748;2024-02-14T12:05:53;100755.34;;;11.38;85.06
72558;BME280;60583;50.094;8.748;2024-02-14T12:08:38;100781.94;;;11.25;85.09
72558;BME280;60583;50.094;8.748;2024-02-14T12:11:21;100788.25;;;11.18;86.50
72558;BME280;60583;50.094;8.748;2024-02-14T12:14:06;100788.59;;;11.08;86.92
72558;BME280;60583;50.094;8.748;2024-02-14T12:16:50;100799.75;;;11.18;87.45
72558;BME280;60583;50.094;8.748;2024-02-14T12:19:35;100744.88;;;10.88;86.91
72558;BME280;60583;50.094;8.748;2024-02-14T12:22:21;100807.34;;;11.15;87.65
72558;BME280;60583;50.094;8.748;2024-02-14T12:25:09;100808.59;;;11.19;88.25
72558;BME280;60583;50.094;8.748;2024-02-14T12:27:56;100784.03;;;11.02;88.09
72558;BME280;60583;50.094;8.748;2024-02-14T12:30:45;100784.84;;;11.03;87.80
72558;BME280;60583;50.094;8.748;2024-02-14T12:33:29;100797.63;;;11.07;89.00
72558;BME280;60583;50.094;8.748;2024-02-14T12:36:13;100794.28;;;11.05;89.38
72558;BME280;60583;50.094;8.748;2024-02-14T12:38:57;100781.03;;;10.90;89.61
72558;BME280;60583;50.094;8.748;2024-02-14T12:41:41;100783.91;;;10.89;89.56
72558;BME280;60583;50.094;8.748;2024-02-14T12:44:26;100789.78;;;11.06;89.90
72558;BME280;60583;50.094;8.748;2024-02-14T12:47:09;100796.72;;;11.00;89.72
72558;BME280;60583;50.094;8.748;2024-02-14T12:49:54;100791.47;;;11.07;89.81
72558;BME280;60583;50.094;8.748;2024-02-14T12:52:38;100799.09;;;11.10;90.61
72558;BME280;60583;50.094;8.748;2024-02-14T12:55:22;100790.66;;;11.13;89.74
72558;BME280;60583;50.094;8.748;2024-02-14T12:58:09;100798.56;;;11.21;89.41
72558;BME280;60583;50.094;8.748;2024-02-14T13:00:56;100780.41;;;11.10;89.65
72558;BME280;60583;50.094;8.748;2024-02-14T13:03:39;100797.16;;;11.25;89.67
72558;BME280;60583;50.094;8.748;2024-02-14T13:06:24;100802.16;;;11.34;89.13
72558;BME280;60583;50.094;8.748;2024-02-14T13:09:08;100785.63;;;10.97;89.74
72558;BME280;60583;50.094;8.748;2024-02-14T13:11:51;100767.63;;;11.05;89.74
72558;BME280;60583;50.094;8.748;2024-02-14T13:14:36;100786.00;;;11.15;90.68
72558;BME280;60583;50.094;8.748;2024-02-14T13:17:20;100758.69;;;10.92;90.07
72558;BME280;60583;50.094;8.748;2024-02-14T13:20:05;100761.06;;;11.08;90.37
72558;BME280;60583;50.094;8.748;2024-02-14T13:22:49;100756.94;;;11.05;89.90
72558;BME280;60583;50.094;8.748;2024-02-14T13:25:33;100778.84;;;11.22;90.34
72558;BME280;60583;50.094;8.748;2024-02-14T13:28:17;100782.13;;;11.17;90.25
72558;BME280;60583;50.094;8.748;2024-02-14T13:31:02;100769.91;;;11.08;90.05
72558;BME280;60583;50.094;8.748;2024-02-14T13:33:46;100736.13;;;10.94;90.41
72558;BME280;60583;50.094;8.748;2024-02-14T13:36:29;100739.66;;;11.01;91.03
72558;BME280;60583;50.094;8.748;2024-02-14T13:39:14;100711.53;;;10.77;92.09
72558;BME280;60583;50.094;8.748;2024-02-14T13:41:58;100762.72;;;11.09;91.45
72558;BME280;60583;50.094;8.748;2024-02-14T13:44:43;100768.09;;;11.15;91.72
72558;BME280;60583;50.094;8.748;2024-02-14T13:47:27;100774.41;;;11.08;92.29
72558;BME280;60583;50.094;8.748;2024-02-14T13:50:11;100768.28;;;11.07;93.32
72558;BME280;60583;50.094;8.748;2024-02-14T13:52:56;100760.69;;;11.11;93.04
72558;BME280;60583;50.094;8.748;2024-02-14T13:55:40;100747.47;;;11.03;93.17
72558;BME280;60583;50.094;8.748;2024-02-14T13:58:24;100760.94;;;11.16;93.86
72558;BME280;60583;50.094;8.748;2024-02-14T14:01:07;100733.88;;;10.98;93.56
72558;BME280;60583;50.094;8.748;2024-02-14T14:03:52;100773.53;;;11.22;94.65
72558;BME280;60583;50.094;8.748;2024-02-14T14:06:38;100742.69;;;10.92;96.32
72558;BME280;60583;50.094;8.748;2024-02-14T14:09:22;100760.50;;;11.12;97.37
72558;BME280;60583;50.094;8.748;2024-02-14T14:12:06;100755.19;;;11.12;97.18
72558;BME280;60583;50.094;8.748;2024-02-14T14:14:50;100754.03;;;11.00;97.97
72558;BME280;60583;50.094;8.748;2024-02-14T14:17:34;100753.25;;;11.06;98.43
72558;BME280;60583;50.094;8.748;2024-02-14T14:20:18;100759.09;;;11.16;99.04
72558;BME280;60583;50.094;8.748;2024-02-14T14:23:02;100763.56;;;11.09;99.73
72558;BME280;60583;50.094;8.748;2024-02-14T14:25:46;100753.88;;;11.08;99.40
72558;BME280;60583;50.094;8.748;2024-02-14T14:28:30;100747.06;;;10.99;100.00